Time;durP1;ratioP1;P1;durP2;ratioP2;P2;SDS_P1;SDS_P2;PMS_P1;PMS_P2;Temp;Humidity;BMP_temperature;BMP_pressure;BME280_temperature;BME280_humidity;BME280_pressure;Samples;Min_cycle;Max_cycle;Signal;HPM_P1;HPM_P2
2023/08/14 00:00:41;;;;;;;10.05;2.50;;;;;;;19.36;69.12;101157.78;2074736;28;20893;-70
2023/08/14 00:01:43;;;;;;;6.82;2.55;;;;;;;19.32;69.33;101154.09;2081942;28;20785;-71
2023/08/14 00:02:47;;;;;;;8.55;2.60;;;;;;;19.29;69.44;101157.47;2082535;28;20037;-70
2023/08/14 00:03:50;;;;;;;7.38;2.30;;;;;;;19.27;69.64;101159.72;2089896;28;20033;-71
2023/08/14 00:04:54;;;;;;;7.30;2.30;;;;;;;19.25;69.77;101161.97;2089761;28;20049;-71
2023/08/14 00:05:55;;;;;;;10.85;2.78;;;;;;;19.21;69.76;101159.88;2090094;28;20033;-72
2023/08/14 00:06:57;;;;;;;9.43;2.58;;;;;;;19.16;69.77;101157.31;2073825;28;20046;-70
2023/08/14 00:08:00;;;;;;;7.90;2.55;;;;;;;19.10;70.08;101155.06;2082000;28;20030;-71
2023/08/14 00:09:04;;;;;;;10.23;2.53;;;;;;;19.08;70.26;101154.59;2098238;28;20021;-71
2023/08/14 00:10:08;;;;;;;5.03;2.15;;;;;;;19.05;70.48;101150.59;2081838;28;20124;-71
2023/08/14 00:11:12;;;;;;;5.82;2.67;;;;;;;19.00;70.73;101161.66;2082863;28;20034;-72
2023/08/14 00:12:15;;;;;;;9.20;2.15;;;;;;;18.96;70.71;101155.25;2099817;28;20045;-72
2023/08/14 00:13:20;;;;;;;8.25;2.30;;;;;;;18.92;71.00;101149.63;2090132;28;20033;-72
2023/08/14 00:14:22;;;;;;;11.35;2.85;;;;;;;18.92;71.25;101154.28;2082856;28;20140;-74
2023/08/14 00:15:24;;;;;;;8.65;2.08;;;;;;;18.90;71.35;101156.53;2097719;28;21021;-71
2023/08/14 00:16:26;;;;;;;7.75;2.13;;;;;;;18.92;71.44;101154.28;2089268;28;20041;-72
2023/08/14 00:17:28;;;;;;;9.50;2.15;;;;;;;18.90;71.59;101153.78;2073477;28;20066;-73
2023/08/14 00:18:32;;;;;;;9.52;2.42;;;;;;;18.92;71.57;101151.56;2081717;28;20030;-73
2023/08/14 00:19:34;;;;;;;5.38;2.30;;;;;;;18.93;71.44;101158.59;2089728;28;20254;-72
2023/08/14 00:20:36;;;;;;;7.07;2.55;;;;;;;18.94;71.60;101152.03;2089687;28;20148;-73
2023/08/14 00:21:38;;;;;;;7.65;2.38;;;;;;;18.94;71.58;101146.56;2089948;28;20099;-72
2023/08/14 00:22:40;;;;;;;8.15;2.47;;;;;;;18.91;71.74;101144.50;2089618;28;20036;-72
2023/08/14 00:23:41;;;;;;;14.20;2.63;;;;;;;18.91;71.58;101147.22;2081784;28;20785;-71
2023/08/14 00:24:44;;;;;;;6.07;2.80;;;;;;;18.92;71.89;101154.28;2090018;28;20049;-71
2023/08/14 00:25:46;;;;;;;6.30;2.35;;;;;;;18.92;71.92;101151.56;2090314;28;20030;-72
2023/08/14 00:26:48;;;;;;;9.10;2.40;;;;;;;18.89;72.03;101152.19;2081671;28;20758;-72
2023/08/14 00:27:50;;;;;;;7.28;3.00;;;;;;;18.89;72.06;101154.94;2082160;28;20873;-72
2023/08/14 00:28:52;;;;;;;9.68;2.10;;;;;;;18.88;72.17;101150.56;2089385;28;20108;-72
2023/08/14 00:29:54;;;;;;;5.78;2.40;;;;;;;18.88;72.52;101153.31;2073875;28;20869;-72
2023/08/14 00:30:56;;;;;;;7.45;1.83;;;;;;;18.88;72.53;101154.09;2081390;28;20037;-73
2023/08/14 00:31:57;;;;;;;6.40;2.03;;;;;;;18.90;72.67;101156.53;2073567;28;20030;-72
2023/08/14 00:33:02;;;;;;;16.33;2.58;;;;;;;18.93;72.67;101155.88;2075032;28;20041;-72
2023/08/14 00:34:04;;;;;;;9.35;2.30;;;;;;;18.95;72.72;101156.38;2082108;28;20030;-73
2023/08/14 00:35:08;;;;;;;5.82;2.10;;;;;;;18.95;72.69;101154.44;2081856;28;20029;-73
2023/08/14 00:36:09;;;;;;;6.43;2.10;;;;;;;18.96;72.87;101166.13;2081807;28;20029;-73
2023/08/14 00:37:11;;;;;;;8.00;2.17;;;;;;;18.99;72.82;101165.50;2089522;28;20029;-74
2023/08/14 00:38:13;;;;;;;6.82;2.40;;;;;;;18.99;73.00;101163.56;2097806;28;20166;-74
2023/08/14 00:39:15;;;;;;;13.82;3.33;;;;;;;19.02;72.84;101167.59;2081149;28;20022;-72
2023/08/14 00:40:17;;;;;;;8.02;2.13;;;;;;;19.03;72.83;101165.66;2073168;28;20046;-72
2023/08/14 00:41:21;;;;;;;11.32;2.20;;;;;;;19.03;72.87;101166.47;2074498;28;20105;-73
2023/08/14 00:42:22;;;;;;;8.38;2.30;;;;;;;19.04;73.01;101168.09;2072262;28;20031;-73
2023/08/14 00:43:26;;;;;;;4.75;1.98;;;;;;;19.06;72.91;101171.28;2089975;28;20025;-73
2023/08/14 00:44:30;;;;;;;5.43;2.15;;;;;;;19.04;72.98;101178.16;2081702;28;20857;-73
2023/08/14 00:45:31;;;;;;;7.90;2.22;;;;;;;18.99;72.92;101170.94;2082163;28;20049;-73
2023/08/14 00:46:38;;;;;;;9.43;2.40;;;;;;;19.01;73.15;101168.72;2090002;28;20080;-72
2023/08/14 00:47:42;;;;;;;7.13;2.75;;;;;;;19.02;73.11;101164.06;2090520;28;20126;-73
2023/08/14 00:48:48;;;;;;;6.20;2.60;;;;;;;19.00;73.05;101172.53;2078397;28;20038;-73
2023/08/14 00:49:53;;;;;;;4.65;2.03;;;;;;;18.98;73.16;101169.34;2058453;28;20071;-73
2023/08/14 00:50:55;;;;;;;6.13;2.20;;;;;;;18.98;73.37;101169.34;2070841;28;20972;-74
2023/08/14 00:52:00;;;;;;;7.28;2.15;;;;;;;18.97;73.45;101173.19;2089534;28;20030;-74
2023/08/14 00:53:03;;;;;;;9.23;2.28;;;;;;;18.97;73.68;101173.19;2074239;28;20121;-74
2023/08/14 00:54:05;;;;;;;4.57;2.03;;;;;;;18.95;73.81;101170.78;2081791;28;20974;-73
2023/08/14 00:55:11;;;;;;;9.00;2.63;;;;;;;18.95;73.94;101170.00;2090244;28;20199;-73
2023/08/14 00:56:12;;;;;;;6.60;2.28;;;;;;;18.93;74.21;101170.31;2088748;28;21242;-72
2023/08/14 00:57:13;;;;;;;9.27;2.30;;;;;;;18.93;74.29;101164.06;2073125;28;20038;-72
2023/08/14 00:58:17;;;;;;;5.32;2.22;;;;;;;18.93;74.29;101167.56;2072839;28;20026;-73
2023/08/14 00:59:19;;;;;;;5.32;2.10;;;;;;;18.96;74.40;101174.31;2082207;28;20038;-73
2023/08/14 01:00:21;;;;;;;5.70;2.20;;;;;;;18.96;74.57;101172.38;2080995;28;20778;-73
2023/08/14 01:01:24;;;;;;;5.47;2.15;;;;;;;18.95;74.58;101170.00;2082167;28;20068;-73
2023/08/14 01:02:26;;;;;;;9.02;2.17;;;;;;;18.94;74.45;101168.38;2089350;28;20029;-74
2023/08/14 01:03:30;;;;;;;5.03;2.10;;;;;;;18.91;74.62;101169.00;2089832;28;20068;-73
2023/08/14 01:04:32;;;;;;;4.30;2.03;;;;;;;18.91;74.75;101171.75;2089697;28;20849;-71
2023/08/14 01:05:35;;;;;;;7.10;2.20;;;;;;;18.89;74.99;101171.28;2089755;28;20136;-71
2023/08/14 01:06:36;;;;;;;5.45;2.10;;;;;;;18.87;74.93;101162.59;2089770;28;20077;-71
2023/08/14 01:07:38;;;;;;;5.57;2.17;;;;;;;18.86;75.19;101167.25;2098745;28;20147;-71
2023/08/14 01:08:41;;;;;;;6.68;2.55;;;;;;;18.87;75.31;101157.16;2089227;28;20038;-71
2023/08/14 01:09:43;;;;;;;7.50;2.30;;;;;;;18.85;75.37;101164.84;2073633;28;20026;-71
2023/08/14 01:11:02;;;;;;;10.88;2.83;;;;;;;18.82;75.33;101170.94;2072879;28;20085;-70
2023/08/14 01:12:18;;;;;;;5.53;2.22;;;;;;;18.78;75.66;101168.03;2080052;28;20049;-71
2023/08/14 01:13:51;;;;;;;8.35;2.35;;;;;;;18.73;76.06;101166.28;2091720;28;20029;-71
2023/08/14 01:15:02;;;;;;;13.95;2.53;;;;;;;18.68;76.46;101163.69;2093531;28;20037;-72
2023/08/14 01:16:09;;;;;;;8.55;2.83;;;;;;;18.65;76.57;101158.88;2091026;28;20037;-71
2023/08/14 01:17:18;;;;;;;14.27;2.53;;;;;;;18.65;76.76;101163.50;2099524;28;20091;-71
2023/08/14 01:18:21;;;;;;;8.02;3.72;;;;;;;18.67;77.13;101164.00;2089163;28;20202;-72
2023/08/14 01:19:28;;;;;;;6.90;2.35;;;;;;;18.72;76.82;101172.00;2081269;28;20038;-72
2023/08/14 01:20:37;;;;;;;7.95;2.30;;;;;;;18.72;76.63;101163.84;2074419;28;20846;-72
2023/08/14 01:22:09;;;;;;;11.52;2.65;;;;;;;18.70;76.71;101164.16;2074566;28;20201;-72
2023/08/14 01:23:32;;;;;;;9.88;2.50;;;;;;;18.68;76.89;101166.41;2081262;28;20037;-72
2023/08/14 01:24:52;;;;;;;7.25;2.42;;;;;;;18.66;77.02;101157.75;2084144;28;20025;-73
2023/08/14 01:25:56;;;;;;;;;;;;;;;18.66;77.08;101156.94;2086673;28;20041;-71
2023/08/14 01:26:59;;;;;;;6.60;2.05;;;;;;;18.64;77.08;101160.00;2081673;28;19964;-72
2023/08/14 01:28:02;;;;;;;7.60;2.00;;;;;;;18.64;77.05;101154.53;2073461;28;20113;-72
2023/08/14 01:29:03;;;;;;;6.90;2.03;;;;;;;18.67;77.18;101162.09;2073384;28;20030;-72
2023/08/14 01:30:07;;;;;;;7.35;2.42;;;;;;;18.67;77.00;101162.09;2073084;28;20153;-72
2023/08/14 01:31:12;;;;;;;4.10;2.38;;;;;;;18.66;77.04;101165.94;2067161;28;20027;-70
2023/08/14 01:32:14;;;;;;;7.95;2.45;;;;;;;18.68;77.08;101166.41;2082198;28;20940;-71
2023/08/14 01:33:17;;;;;;;6.18;2.63;;;;;;;18.69;76.96;101170.72;2081905;28;20147;-72
2023/08/14 01:34:19;;;;;;;8.57;2.22;;;;;;;18.70;76.92;101169.63;2081200;28;20884;-72
2023/08/14 01:35:22;;;;;;;5.95;2.47;;;;;;;18.72;76.89;101175.56;2081638;28;20046;-72
2023/08/14 01:36:31;;;;;;;11.30;2.45;;;;;;;18.73;76.83;101177.19;2081689;28;20152;-72
2023/08/14 01:37:49;;;;;;;9.90;2.70;;;;;;;18.73;76.95;101170.94;2090919;28;20143;-72
2023/08/14 01:39:03;;;;;;;6.85;2.45;;;;;;;18.77;76.87;101179.28;2097544;28;20041;-70
2023/08/14 01:40:25;;;;;;;7.57;2.10;;;;;;;18.74;76.75;101181.50;2080921;28;20032;-71
2023/08/14 01:41:36;;;;;;;6.45;2.03;;;;;;;18.75;76.68;101177.66;2082171;28;20017;-71
2023/08/14 01:42:38;;;;;;;10.65;2.88;;;;;;;18.79;76.84;101177.00;2098105;28;20060;-71
2023/08/14 01:43:47;;;;;;;5.00;2.20;;;;;;;18.80;76.66;101181.34;2097553;28;20132;-73
2023/08/14 01:44:58;;;;;;;6.85;2.03;;;;;;;18.82;76.68;101179.09;2089288;28;20880;-72
2023/08/14 01:46:00;;;;;;;7.07;2.30;;;;;;;18.83;76.63;101178.78;2090478;28;20927;-71
2023/08/14 01:47:06;;;;;;;5.45;2.38;;;;;;;18.83;76.31;101178.78;2089365;28;20861;-71
2023/08/14 01:48:10;;;;;;;7.53;2.15;;;;;;;18.87;76.60;101181.69;2097592;28;20226;-71
2023/08/14 01:49:18;;;;;;;7.30;2.83;;;;;;;18.87;76.22;101168.06;2089434;28;20036;-71
2023/08/14 01:50:22;;;;;;;5.13;1.90;;;;;;;18.87;76.23;101177.03;2089335;28;20796;-72
2023/08/14 01:51:28;;;;;;;8.20;2.53;;;;;;;18.87;76.05;101176.22;2073163;28;20034;-71
2023/08/14 01:52:30;;;;;;;6.25;2.08;;;;;;;18.86;76.11;101180.09;2082232;28;20033;-72
2023/08/14 01:53:36;;;;;;;5.40;2.10;;;;;;;18.85;76.01;101179.28;2073211;28;20022;-72
2023/08/14 01:54:38;;;;;;;7.82;2.17;;;;;;;18.86;76.02;101177.38;2067163;28;20042;-72
2023/08/14 01:55:40;;;;;;;11.65;2.45;;;;;;;18.86;75.97;101174.63;2074898;28;20030;-73
2023/08/14 01:56:42;;;;;;;7.30;2.00;;;;;;;18.87;75.83;101168.06;2074537;28;20145;-72
2023/08/14 01:57:43;;;;;;;5.45;1.98;;;;;;;18.87;75.77;101174.31;2074368;28;20129;-72
2023/08/14 01:58:45;;;;;;;4.32;2.20;;;;;;;18.88;75.77;101177.81;2066168;28;20031;-72
2023/08/14 01:59:47;;;;;;;7.03;2.42;;;;;;;18.89;75.47;101176.72;2083005;28;20038;-73
2023/08/14 02:00:50;;;;;;;5.10;2.17;;;;;;;18.90;75.56;101161.97;2098625;28;20063;-72
2023/08/14 02:01:55;;;;;;;6.18;2.05;;;;;;;18.93;75.44;101178.47;2090926;28;20037;-74
2023/08/14 02:02:57;;;;;;;7.75;2.05;;;;;;;18.95;75.29;101178.19;2090658;28;20025;-73
2023/08/14 02:03:59;;;;;;;10.07;2.88;;;;;;;18.95;75.21;101176.25;2090816;28;20103;-73
2023/08/14 02:05:03;;;;;;;5.43;2.13;;;;;;;18.95;75.21;101172.72;2098626;28;20032;-74
2023/08/14 02:06:04;;;;;;;4.53;2.13;;;;;;;18.95;74.90;101176.25;2082403;28;20085;-74
2023/08/14 02:07:11;;;;;;;4.70;2.25;;;;;;;18.95;74.95;101170.00;2073966;28;20828;-73
2023/08/14 02:08:13;;;;;;;8.20;3.20;;;;;;;18.96;74.93;101166.13;2067003;28;20041;-74
2023/08/14 02:09:14;;;;;;;9.05;2.88;;;;;;;18.98;74.91;101175.59;2066424;28;20019;-74
2023/08/14 02:10:16;;;;;;;5.45;2.40;;;;;;;18.97;74.88;101173.19;2074781;28;20039;-74
2023/08/14 02:11:18;;;;;;;7.03;2.22;;;;;;;18.97;74.67;101167.75;2082571;28;20032;-74
2023/08/14 02:12:19;;;;;;;5.57;2.42;;;;;;;18.97;74.75;101170.47;2065933;28;20091;-73
2023/08/14 02:13:22;;;;;;;4.90;2.20;;;;;;;18.97;74.66;101173.19;2074595;28;20842;-73
2023/08/14 02:14:24;;;;;;;5.20;2.58;;;;;;;18.97;74.74;101171.25;2090655;28;20104;-72
2023/08/14 02:15:25;;;;;;;9.27;2.95;;;;;;;18.99;74.61;101170.94;2082261;28;20197;-73
2023/08/14 02:16:31;;;;;;;4.95;2.42;;;;;;;18.99;74.61;101181.84;2074266;28;20136;-73
2023/08/14 02:17:32;;;;;;;4.03;2.10;;;;;;;18.98;74.52;101177.53;2083099;28;20116;-73
2023/08/14 02:18:34;;;;;;;4.60;2.33;;;;;;;18.96;74.45;101171.59;2090812;28;20033;-73
2023/08/14 02:19:38;;;;;;;10.88;2.28;;;;;;;18.95;74.59;101173.53;2074608;28;20084;-73
2023/08/14 02:20:49;;;;;;;14.00;2.72;;;;;;;18.95;74.59;101175.44;2074583;28;20026;-73
2023/08/14 02:21:50;;;;;;;7.05;2.17;;;;;;;18.93;74.62;101172.22;2064407;28;20054;-73
2023/08/14 02:22:54;;;;;;;7.97;2.45;;;;;;;18.92;74.61;101171.44;2066990;28;20153;-73
2023/08/14 02:23:56;;;;;;;7.45;2.05;;;;;;;18.95;74.66;101180.91;2065723;28;20098;-73
2023/08/14 02:24:59;;;;;;;3.95;2.15;;;;;;;18.93;74.76;101166.78;2074766;28;20034;-73
2023/08/14 02:26:01;;;;;;;5.07;2.00;;;;;;;18.94;74.59;101168.38;2073827;28;20038;-73
2023/08/14 02:27:03;;;;;;;8.30;4.13;;;;;;;18.94;74.77;101171.09;2082900;28;20864;-73
2023/08/14 02:28:09;;;;;;;13.35;4.50;;;;;;;18.94;74.58;101173.81;2082050;28;20064;-73
2023/08/14 02:29:11;;;;;;;13.27;4.43;;;;;;;18.93;74.33;101173.03;2082783;28;20037;-73
2023/08/14 02:30:13;;;;;;;14.90;6.80;;;;;;;18.90;74.14;101167.41;2082270;28;20852;-73
2023/08/14 02:31:14;;;;;;;10.00;4.57;;;;;;;18.90;74.50;101170.16;2082476;28;20954;-73
2023/08/14 02:32:16;;;;;;;7.38;2.95;;;;;;;18.90;74.49;101170.16;2082418;28;20030;-73
2023/08/14 02:33:17;;;;;;;6.80;2.78;;;;;;;18.88;74.29;101167.72;2091183;28;20139;-73
2023/08/14 02:34:42;;;;;;;6.43;2.05;;;;;;;18.84;74.42;101169.50;2090230;28;20866;-73
2023/08/14 02:35:44;;;;;;;6.82;2.15;;;;;;;18.84;74.32;101177.66;2080768;28;20037;-72
2023/08/14 02:36:46;;;;;;;4.00;1.90;;;;;;;18.81;74.31;101174.78;2090407;28;20111;-72
2023/08/14 02:37:49;;;;;;;3.92;2.10;;;;;;;18.83;74.42;101178.00;2090566;28;20830;-72
2023/08/14 02:38:54;;;;;;;6.13;2.17;;;;;;;18.81;74.51;101177.50;2074291;28;20042;-72
2023/08/14 02:39:56;;;;;;;4.05;1.92;;;;;;;18.83;74.61;101188.91;2074931;28;20038;-72
2023/08/14 02:40:57;;;;;;;6.20;2.38;;;;;;;18.84;74.46;101182.31;2074162;28;20104;-73
2023/08/14 02:41:59;;;;;;;8.85;2.60;;;;;;;18.85;74.46;101179.28;2065935;28;20041;-72
2023/08/14 02:43:03;;;;;;;4.90;2.15;;;;;;;18.85;74.44;101181.19;2074659;28;20046;-72
2023/08/14 02:44:06;;;;;;;5.65;2.83;;;;;;;18.84;74.48;101185.84;2090430;28;20044;-72
2023/08/14 02:45:12;;;;;;;6.93;2.50;;;;;;;18.84;74.37;101182.31;2074130;28;20038;-72
2023/08/14 02:46:13;;;;;;;3.40;2.00;;;;;;;18.84;74.29;101182.31;2084491;28;20037;-74
2023/08/14 02:47:16;;;;;;;4.78;2.30;;;;;;;18.84;74.13;101185.03;2107425;28;20075;-73
2023/08/14 02:48:17;;;;;;;6.32;2.15;;;;;;;18.83;74.37;101180.72;2082132;28;20042;-73
2023/08/14 02:49:19;;;;;;;5.57;1.98;;;;;;;18.83;74.38;101183.44;2066041;28;20027;-72
2023/08/14 02:50:21;;;;;;;3.88;2.10;;;;;;;18.81;74.39;101181.03;2082546;28;20030;-73
2023/08/14 02:51:23;;;;;;;4.53;2.10;;;;;;;18.83;74.37;101183.44;2098592;28;20041;-72
2023/08/14 02:52:25;;;;;;;7.70;2.45;;;;;;;18.82;74.45;101179.94;2090673;28;20162;-72
2023/08/14 02:53:26;;;;;;;5.60;2.10;;;;;;;18.82;74.30;101176.38;2074126;28;20833;-73
2023/08/14 02:54:28;;;;;;;7.43;2.20;;;;;;;18.81;74.34;101180.22;2082283;28;20030;-73
2023/08/14 02:55:30;;;;;;;5.30;2.00;;;;;;;18.79;74.43;101179.72;2090633;28;20638;-73
2023/08/14 02:56:31;;;;;;;7.38;2.28;;;;;;;18.79;74.53;101166.13;2082168;28;21243;-74
2023/08/14 02:57:33;;;;;;;6.95;2.00;;;;;;;18.79;74.37;101180.56;2074000;28;20124;-74
2023/08/14 02:58:35;;;;;;;7.03;2.38;;;;;;;18.81;74.46;101180.22;2090421;28;20040;-74
2023/08/14 02:59:37;;;;;;;3.88;1.90;;;;;;;18.83;74.40;101178.00;2090034;28;20875;-74
2023/08/14 03:00:39;;;;;;;5.28;2.38;;;;;;;18.83;74.30;101172.56;2090599;28;20034;-73
2023/08/14 03:01:45;;;;;;;4.40;1.98;;;;;;;18.82;74.28;101177.19;2090437;28;20037;-74
2023/08/14 03:02:47;;;;;;;6.75;2.30;;;;;;;18.84;74.16;101176.88;2082917;28;20860;-73
2023/08/14 03:03:49;;;;;;;5.18;2.00;;;;;;;18.84;74.18;101176.88;2082535;28;20793;-73
2023/08/14 03:04:50;;;;;;;6.03;2.50;;;;;;;18.81;74.10;101172.84;2098308;28;20119;-74
2023/08/14 03:05:56;;;;;;;6.15;1.90;;;;;;;18.85;74.06;101186.63;2081421;28;20070;-74
2023/08/14 03:07:01;;;;;;;4.07;2.05;;;;;;;18.83;73.84;101186.16;2091408;28;20871;-75
2023/08/14 03:08:04;;;;;;;4.22;2.10;;;;;;;18.82;74.00;101181.81;2082356;28;20030;-75
2023/08/14 03:09:06;;;;;;;8.52;2.83;;;;;;;18.81;73.90;101177.50;2090778;28;20104;-74
2023/08/14 03:10:10;;;;;;;4.40;1.90;;;;;;;18.79;73.83;101188.75;2090037;28;20028;-74
2023/08/14 03:11:12;;;;;;;3.97;1.88;;;;;;;18.80;73.79;101184.09;2074488;28;20031;-74
2023/08/14 03:12:17;;;;;;;5.35;2.08;;;;;;;18.80;74.00;101184.09;2090464;28;20883;-75
2023/08/14 03:13:21;;;;;;;3.90;2.10;;;;;;;18.80;73.91;101184.09;2090326;28;20072;-74
2023/08/14 03:14:23;;;;;;;6.88;1.75;;;;;;;18.81;73.90;101185.69;2082483;28;20762;-74
2023/08/14 03:15:25;;;;;;;5.80;2.30;;;;;;;18.82;73.82;101190.00;2090489;28;20041;-74
2023/08/14 03:16:28;;;;;;;6.63;2.13;;;;;;;18.83;73.86;101186.16;2082130;28;21271;-76
2023/08/14 03:17:32;;;;;;;28.98;15.27;;;;;;;18.82;73.69;101190.81;2082838;28;20778;-75
2023/08/14 03:18:34;;;;;;;18.45;8.52;;;;;;;18.82;73.55;101192.72;2082768;28;20065;-75
2023/08/14 03:19:38;;;;;;;15.95;8.00;;;;;;;18.80;73.59;101197.72;2090536;28;20021;-74
2023/08/14 03:20:40;;;;;;;14.55;6.60;;;;;;;18.78;73.59;101198.00;2090662;28;20018;-73
2023/08/14 03:21:44;;;;;;;24.50;12.60;;;;;;;18.75;73.60;101194.00;2090806;28;20032;-74
2023/08/14 03:22:47;;;;;;;7.78;3.80;;;;;;;18.74;73.61;101200.56;2074052;28;20967;-73
2023/08/14 03:23:50;;;;;;;5.22;2.28;;;;;;;18.73;73.68;101196.25;2066161;28;20113;-73
2023/08/14 03:24:53;;;;;;;6.68;2.30;;;;;;;18.73;73.80;101201.69;2073978;28;20038;-73
2023/08/14 03:25:56;;;;;;;4.25;2.00;;;;;;;18.72;73.69;101194.63;2074818;28;20924;-73
2023/08/14 03:26:58;;;;;;;3.80;2.00;;;;;;;18.70;73.67;101196.84;2081847;28;20906;-72
2023/08/14 03:27:59;;;;;;;6.85;2.10;;;;;;;18.68;73.79;101199.09;2082006;28;20067;-73
2023/08/14 03:29:02;;;;;;;7.43;2.40;;;;;;;18.68;73.82;101201.81;2073867;28;20878;-72
2023/08/14 03:30:07;;;;;;;5.15;2.22;;;;;;;18.67;74.21;101202.94;2082040;28;20042;-72
2023/08/14 03:31:09;;;;;;;6.97;1.83;;;;;;;18.65;74.00;101202.44;2074497;28;20034;-72
2023/08/14 03:32:12;;;;;;;6.70;2.10;;;;;;;18.65;74.13;101205.16;2074443;28;20049;-72
2023/08/14 03:33:13;;;;;;;4.90;1.80;;;;;;;18.63;74.12;101196.53;2082179;28;20028;-73
2023/08/14 03:34:14;;;;;;;6.72;2.15;;;;;;;18.61;74.15;101198.75;2082148;28;20136;-72
2023/08/14 03:35:17;;;;;;;5.05;1.90;;;;;;;18.61;74.13;101201.47;2073752;28;20856;-72
2023/08/14 03:36:21;;;;;;;4.22;1.80;;;;;;;18.62;74.26;101194.91;2074382;28;20033;-73
2023/08/14 03:37:27;;;;;;;8.50;2.08;;;;;;;18.63;74.27;101196.53;2090712;28;20029;-73
2023/08/14 03:38:31;;;;;;;5.93;2.10;;;;;;;18.65;74.19;101199.72;2074262;28;20034;-74
2023/08/14 03:39:34;;;;;;;3.03;1.77;;;;;;;18.67;74.03;101197.50;2083339;28;20030;-74
2023/08/14 03:40:36;;;;;;;13.00;6.35;;;;;;;18.65;73.98;101199.72;2089712;28;20780;-74
2023/08/14 03:41:37;;;;;;;10.60;5.07;;;;;;;18.65;73.93;101198.91;2073520;28;20854;-74
2023/08/14 03:42:40;;;;;;;12.80;5.50;;;;;;;18.62;73.93;101203.06;2082200;28;20041;-74
2023/08/14 03:43:42;;;;;;;8.77;3.70;;;;;;;18.64;74.12;101202.78;2090292;28;20018;-74
2023/08/14 03:44:44;;;;;;;5.43;2.40;;;;;;;18.63;74.19;101192.97;2090334;28;20107;-74
2023/08/14 03:45:45;;;;;;;3.30;2.17;;;;;;;18.65;74.17;101207.88;2082110;28;20120;-74
2023/08/14 03:46:47;;;;;;;5.72;2.22;;;;;;;18.65;74.11;101207.09;2090236;28;20045;-74
2023/08/14 03:47:51;;;;;;;3.50;1.70;;;;;;;18.66;74.09;101206.78;2090673;28;20033;-74
2023/08/14 03:48:56;;;;;;;4.25;2.00;;;;;;;18.67;74.26;101202.94;2085607;28;20161;-74
2023/08/14 03:49:57;;;;;;;5.13;1.80;;;;;;;18.71;74.18;101200.38;2073811;28;20026;-74
2023/08/14 03:50:59;;;;;;;6.10;2.20;;;;;;;18.72;74.14;101200.06;2086925;28;20048;-74
2023/08/14 03:52:00;;;;;;;5.35;2.03;;;;;;;18.73;74.09;101198.97;2073747;28;20034;-74
2023/08/14 03:53:02;;;;;;;7.22;3.00;;;;;;;18.74;74.06;101197.06;2066143;28;20047;-73
2023/08/14 03:54:06;;;;;;;3.15;1.98;;;;;;;18.73;73.86;101196.25;2081870;28;20188;-74
2023/08/14 03:55:10;;;;;;;4.82;1.77;;;;;;;18.74;73.95;101186.94;2065715;28;20049;-74
2023/08/14 03:56:12;;;;;;;2.85;1.60;;;;;;;18.78;74.06;101186.31;2066588;28;20097;-74
2023/08/14 03:57:14;;;;;;;4.03;2.05;;;;;;;18.82;73.74;101187.28;2090283;28;20139;-74
2023/08/14 03:58:19;;;;;;;5.00;1.90;;;;;;;18.82;73.71;101185.38;2097447;28;20029;-75
2023/08/14 03:59:23;;;;;;;7.47;2.25;;;;;;;18.84;73.68;101187.75;2089898;28;20128;-74
2023/08/14 04:00:25;;;;;;;4.57;1.95;;;;;;;18.84;73.52;101190.50;2082081;28;20060;-74
2023/08/14 04:01:27;;;;;;;6.78;1.70;;;;;;;18.88;73.56;101186.00;2073670;28;20141;-74
2023/08/14 04:02:31;;;;;;;6.38;2.20;;;;;;;18.90;73.65;101190.00;2081765;28;20869;-72
2023/08/14 04:03:33;;;;;;;5.55;1.70;;;;;;;18.93;73.62;101186.66;2082242;28;20069;-73
2023/08/14 04:04:35;;;;;;;5.75;2.05;;;;;;;18.98;73.52;101185.72;2089689;28;20064;-73
2023/08/14 04:05:39;;;;;;;4.82;1.83;;;;;;;19.04;73.72;101187.16;2098475;28;20132;-73
2023/08/14 04:06:42;;;;;;;4.35;2.00;;;;;;;19.09;73.48;101186.19;2089690;28;20037;-74
2023/08/14 04:07:44;;;;;;;3.50;1.88;;;;;;;19.12;73.36;101180.88;2081834;28;20152;-74
2023/08/14 04:08:48;;;;;;;6.32;1.90;;;;;;;19.18;73.15;101185.06;2073965;28;20022;-74
2023/08/14 04:09:56;;;;;;;7.45;1.77;;;;;;;19.23;73.02;101178.66;2074431;28;20046;-74
2023/08/14 04:10:58;;;;;;;4.50;1.80;;;;;;;19.26;72.89;101182.63;2073576;28;20029;-74
2023/08/14 04:12:01;;;;;;;7.22;1.95;;;;;;;19.30;72.65;101183.63;2081323;28;20049;-72
2023/08/14 04:13:03;;;;;;;5.10;1.90;;;;;;;19.34;72.56;101179.91;2073708;28;21047;-72
2023/08/14 04:14:06;;;;;;;6.53;1.70;;;;;;;19.34;72.37;101181.84;2073941;28;20046;-72
2023/08/14 04:15:19;;;;;;;7.10;1.63;;;;;;;19.41;72.28;101176.69;2073551;28;20900;-72
2023/08/14 04:16:21;;;;;;;3.72;1.95;;;;;;;19.42;72.15;101179.13;2085056;28;20014;-72
2023/08/14 04:17:22;;;;;;;7.40;2.08;;;;;;;19.45;72.11;101177.66;2073430;28;20789;-72
2023/08/14 04:18:26;;;;;;;8.52;2.15;;;;;;;19.49;72.09;101177.81;2073559;28;20813;-71
2023/08/14 04:19:27;;;;;;;5.70;1.60;;;;;;;19.53;71.93;101179.56;2089732;28;20783;-72
2023/08/14 04:20:29;;;;;;;6.03;1.83;;;;;;;19.58;71.58;101176.69;2081628;28;20037;-72
2023/08/14 04:21:31;;;;;;;6.85;2.35;;;;;;;19.65;71.44;101178.94;2073517;28;20045;-72
2023/08/14 04:22:35;;;;;;;11.57;2.13;;;;;;;19.70;71.18;101177.94;2090074;28;20912;-72
2023/08/14 04:23:39;;;;;;;4.82;1.98;;;;;;;19.74;70.87;101179.72;2090291;28;20068;-72
2023/08/14 04:24:41;;;;;;;6.53;2.20;;;;;;;19.79;70.39;101173.28;2090189;28;20014;-72
2023/08/14 04:25:42;;;;;;;7.32;1.77;;;;;;;19.84;70.06;101173.91;2073877;28;20156;-72
2023/08/14 04:26:44;;;;;;;5.93;1.70;;;;;;;19.90;69.83;101177.25;2074176;28;20881;-72
2023/08/14 04:27:49;;;;;;;5.57;1.80;;;;;;;19.94;69.36;101178.22;2083811;28;20208;-72
2023/08/14 04:28:52;;;;;;;5.43;1.75;;;;;;;19.99;69.21;101186.22;2091185;28;20856;-71
2023/08/14 04:29:57;;;;;;;5.38;1.80;;;;;;;20.07;69.17;101187.31;2098200;28;20894;-71
2023/08/14 04:30:59;;;;;;;5.40;2.00;;;;;;;20.13;68.98;101184.06;2081678;28;20045;-72
2023/08/14 04:32:06;;;;;;;5.97;1.90;;;;;;;20.20;68.92;101180.03;2090783;28;20022;-72
2023/08/14 04:33:11;;;;;;;7.07;1.90;;;;;;;20.30;68.58;101185.09;2097981;28;20025;-72
2023/08/14 04:34:15;;;;;;;3.95;1.77;;;;;;;20.38;68.46;101189.75;2098198;28;20025;-71
2023/08/14 04:35:20;;;;;;;4.55;2.05;;;;;;;20.45;68.11;101181.03;2090011;28;20040;-71
2023/08/14 04:36:26;;;;;;;3.83;1.77;;;;;;;20.46;67.51;101180.72;2081417;28;20073;-72
2023/08/14 04:37:28;;;;;;;4.25;1.45;;;;;;;20.50;67.32;101178.13;2082557;28;20032;-72
2023/08/14 04:38:35;;;;;;;4.95;2.00;;;;;;;20.58;67.40;101186.25;2073798;28;20198;-72
2023/08/14 04:39:37;;;;;;;7.15;1.90;;;;;;;20.65;67.08;101182.22;2075284;28;20078;-73
2023/08/14 04:40:42;;;;;;;4.97;1.65;;;;;;;20.70;66.64;101185.56;2081656;28;20061;-73
2023/08/14 04:41:46;;;;;;;6.13;1.92;;;;;;;20.78;66.47;101183.91;2090415;28;20935;-73
2023/08/14 04:42:48;;;;;;;4.38;2.22;;;;;;;20.87;66.53;101181.91;2097928;28;20036;-72
2023/08/14 04:43:49;;;;;;;3.72;1.67;;;;;;;20.96;66.43;101188.09;2081101;28;20046;-72
2023/08/14 04:44:52;;;;;;;4.88;1.70;;;;;;;21.08;66.43;101186.56;2073343;28;20761;-72
2023/08/14 04:45:53;;;;;;;5.25;2.00;;;;;;;21.18;65.94;101180.69;2081448;28;20080;-73
2023/08/14 04:46:54;;;;;;;7.25;1.80;;;;;;;21.29;65.60;101184.63;2073379;28;20046;-72
2023/08/14 04:47:57;;;;;;;4.75;1.92;;;;;;;21.41;65.28;101187.44;2081514;28;20034;-72
2023/08/14 04:49:03;;;;;;;7.88;2.13;;;;;;;21.49;64.66;101181.06;2075708;28;20862;-72
2023/08/14 04:50:08;;;;;;;3.47;1.70;;;;;;;21.60;64.30;101181.47;2074531;28;20038;-72
2023/08/14 04:51:10;;;;;;;7.57;1.90;;;;;;;21.71;63.99;101190.03;2096979;28;20152;-72
2023/08/14 04:52:11;;;;;;;8.52;1.50;;;;;;;21.82;63.50;101183.00;2089806;28;20042;-72
2023/08/14 04:53:13;;;;;;;4.70;1.70;;;;;;;21.93;63.42;101189.59;2090002;28;20025;-72
2023/08/14 04:54:16;;;;;;;5.75;1.98;;;;;;;22.05;62.73;101196.25;2097721;28;20997;-73
2023/08/14 04:55:23;;;;;;;6.88;1.77;;;;;;;22.15;62.27;101195.81;2073442;28;20164;-73
2023/08/14 04:56:30;;;;;;;6.70;2.00;;;;;;;22.26;62.07;101193.44;2075659;28;20148;-73